KAIO

Atlantic Municipal Airport

Atlantic, Iowa, USA
METAR KAIO 221755Z AUTO 05010G19KT 10SM CLR 18/M00 A3020 RMK AO2
Observed Flight Rules
Apr-22 @ 17:55 UTC (14 minutes ago) Visual Flight Rules
Wind Visibility Clouds
50° at 10 knots
 Gusting to 19 knots
10 miles
  • Clear skies
Temperatures Readings
Current 18°C / 64°F
Dewpoint 0°C / 32°F
Humidity 30%
Altimeter 30.2" Hg
Pressure 1023 hPa
Elevation 360
METAR KAIO 221755Z AUTO 05010G19KT 10SM CLR 18/M00 A3020 RMK AO2
Observed Flight Rules
Apr-22 @ 17:55 UTC
(14 minutes ago)
VFR
Wind Visibility
50° at 10 knots
 Gusting to 19 knots
10 miles
Clouds
  • Clear skies
Temperature Dewpoint
18°C / 64°F 0°C / 32°F
Humidity Altimeter Pressure
30% 30.2" Hg 1023 hPa